sensor_id;sensor_type;location;lat;lon;timestamp;temperature;humidity
74901;DHT22;63461;51.416;6.758;2022-09-24T00:00:46;14.90;99.90
74901;DHT22;63461;51.416;6.758;2022-09-24T00:03:34;14.90;99.90
74901;DHT22;63461;51.416;6.758;2022-09-24T00:06:20;14.90;99.90
74901;DHT22;63461;51.416;6.758;2022-09-24T00:09:04;14.90;99.90
74901;DHT22;63461;51.416;6.758;2022-09-24T00:11:49;14.90;99.90
74901;DHT22;63461;51.416;6.758;2022-09-24T00:14:34;14.80;99.90
74901;DHT22;63461;51.416;6.758;2022-09-24T00:17:18;14.80;99.90
74901;DHT22;63461;51.416;6.758;2022-09-24T00:20:02;14.80;99.90
74901;DHT22;63461;51.416;6.758;2022-09-24T00:22:47;14.80;99.90
74901;DHT22;63461;51.416;6.758;2022-09-24T00:25:31;14.80;99.90
74901;DHT22;63461;51.416;6.758;2022-09-24T00:28:34;14.70;99.90
74901;DHT22;63461;51.416;6.758;2022-09-24T00:31:19;14.70;99.90
74901;DHT22;63461;51.416;6.758;2022-09-24T00:34:04;14.70;99.90
74901;DHT22;63461;51.416;6.758;2022-09-24T00:36:48;14.80;99.90
74901;DHT22;63461;51.416;6.758;2022-09-24T00:39:32;14.80;99.90
74901;DHT22;63461;51.416;6.758;2022-09-24T00:42:18;14.70;99.90
74901;DHT22;63461;51.416;6.758;2022-09-24T00:45:03;14.70;99.90
74901;DHT22;63461;51.416;6.758;2022-09-24T00:47:48;14.70;99.90
74901;DHT22;63461;51.416;6.758;2022-09-24T00:50:34;14.70;99.90
74901;DHT22;63461;51.416;6.758;2022-09-24T00:53:21;14.70;99.90
74901;DHT22;63461;51.416;6.758;2022-09-24T00:56:09;14.70;99.90
74901;DHT22;63461;51.416;6.758;2022-09-24T00:58:56;14.60;99.90
74901;DHT22;63461;51.416;6.758;2022-09-24T01:01:42;14.60;99.90
74901;DHT22;63461;51.416;6.758;2022-09-24T01:04:27;14.70;99.90
74901;DHT22;63461;51.416;6.758;2022-09-24T01:07:11;14.70;99.90
74901;DHT22;63461;51.416;6.758;2022-09-24T01:09:55;14.70;99.90
74901;DHT22;63461;51.416;6.758;2022-09-24T01:12:51;14.70;99.90
74901;DHT22;63461;51.416;6.758;2022-09-24T01:15:45;14.70;99.90
74901;DHT22;63461;51.416;6.758;2022-09-24T01:18:58;14.60;99.90
74901;DHT22;63461;51.416;6.758;2022-09-24T01:21:55;14.70;99.90
74901;DHT22;63461;51.416;6.758;2022-09-24T01:28:17;14.70;99.90
74901;DHT22;63461;51.416;6.758;2022-09-24T01:31:15;14.70;99.90
74901;DHT22;63461;51.416;6.758;2022-09-24T01:34:03;14.70;99.90
74901;DHT22;63461;51.416;6.758;2022-09-24T01:36:49;14.70;99.90
74901;DHT22;63461;51.416;6.758;2022-09-24T01:39:36;14.70;99.90
74901;DHT22;63461;51.416;6.758;2022-09-24T01:42:22;14.70;99.90
74901;DHT22;63461;51.416;6.758;2022-09-24T01:45:08;14.70;99.90
74901;DHT22;63461;51.416;6.758;2022-09-24T01:47:53;14.70;99.90
74901;DHT22;63461;51.416;6.758;2022-09-24T01:50:45;14.70;99.90
74901;DHT22;63461;51.416;6.758;2022-09-24T01:53:36;14.70;99.90
74901;DHT22;63461;51.416;6.758;2022-09-24T01:56:28;14.70;99.90
74901;DHT22;63461;51.416;6.758;2022-09-24T02:02:29;14.60;99.90
74901;DHT22;63461;51.416;6.758;2022-09-24T02:05:31;14.60;99.90
74901;DHT22;63461;51.416;6.758;2022-09-24T02:08:20;14.60;99.90
74901;DHT22;63461;51.416;6.758;2022-09-24T02:11:08;14.60;99.90
74901;DHT22;63461;51.416;6.758;2022-09-24T02:14:04;14.50;99.90
74901;DHT22;63461;51.416;6.758;2022-09-24T02:16:50;14.50;99.90
74901;DHT22;63461;51.416;6.758;2022-09-24T02:19:36;14.50;99.90
74901;DHT22;63461;51.416;6.758;2022-09-24T02:22:23;14.50;99.90
74901;DHT22;63461;51.416;6.758;2022-09-24T02:25:13;14.50;99.90
74901;DHT22;63461;51.416;6.758;2022-09-24T02:27:58;14.50;99.90
74901;DHT22;63461;51.416;6.758;2022-09-24T02:30:47;14.50;99.90
74901;DHT22;63461;51.416;6.758;2022-09-24T02:33:34;14.50;99.90
74901;DHT22;63461;51.416;6.758;2022-09-24T02:36:38;14.50;99.90
74901;DHT22;63461;51.416;6.758;2022-09-24T02:39:24;14.50;99.90
74901;DHT22;63461;51.416;6.758;2022-09-24T02:42:11;14.50;99.90
74901;DHT22;63461;51.416;6.758;2022-09-24T02:44:56;14.50;99.90
74901;DHT22;63461;51.416;6.758;2022-09-24T02:47:43;14.50;99.90
74901;DHT22;63461;51.416;6.758;2022-09-24T02:50:27;14.50;99.90
74901;DHT22;63461;51.416;6.758;2022-09-24T02:53:11;14.40;99.90
74901;DHT22;63461;51.416;6.758;2022-09-24T02:55:56;14.40;99.90
74901;DHT22;63461;51.416;6.758;2022-09-24T02:58:42;14.40;99.90
74901;DHT22;63461;51.416;6.758;2022-09-24T03:01:26;14.40;99.90
74901;DHT22;63461;51.416;6.758;2022-09-24T03:04:11;14.40;99.90
74901;DHT22;63461;51.416;6.758;2022-09-24T03:06:56;14.40;99.90
74901;DHT22;63461;51.416;6.758;2022-09-24T03:09:40;14.40;99.90
74901;DHT22;63461;51.416;6.758;2022-09-24T03:12:25;14.30;99.90
74901;DHT22;63461;51.416;6.758;2022-09-24T03:15:10;14.40;99.90
74901;DHT22;63461;51.416;6.758;2022-09-24T03:17:54;14.40;99.90
74901;DHT22;63461;51.416;6.758;2022-09-24T03:20:39;14.30;99.90
74901;DHT22;63461;51.416;6.758;2022-09-24T03:23:24;14.30;99.90
74901;DHT22;63461;51.416;6.758;2022-09-24T03:26:08;14.30;99.90
74901;DHT22;63461;51.416;6.758;2022-09-24T03:28:52;14.30;99.90
74901;DHT22;63461;51.416;6.758;2022-09-24T03:31:37;14.30;99.90
74901;DHT22;63461;51.416;6.758;2022-09-24T03:34:21;14.30;99.90
74901;DHT22;63461;51.416;6.758;2022-09-24T03:37:05;14.30;99.90
74901;DHT22;63461;51.416;6.758;2022-09-24T03:39:49;14.20;99.90
74901;DHT22;63461;51.416;6.758;2022-09-24T03:42:34;14.20;99.90
74901;DHT22;63461;51.416;6.758;2022-09-24T03:45:18;14.20;99.90
74901;DHT22;63461;51.416;6.758;2022-09-24T03:48:02;14.20;99.90
74901;DHT22;63461;51.416;6.758;2022-09-24T03:50:47;14.20;99.90
74901;DHT22;63461;51.416;6.758;2022-09-24T03:53:33;14.20;99.90
74901;DHT22;63461;51.416;6.758;2022-09-24T03:56:17;14.20;99.90
74901;DHT22;63461;51.416;6.758;2022-09-24T03:59:01;14.20;99.90
74901;DHT22;63461;51.416;6.758;2022-09-24T04:01:45;14.20;99.90
74901;DHT22;63461;51.416;6.758;2022-09-24T04:04:30;14.10;99.90
74901;DHT22;63461;51.416;6.758;2022-09-24T04:07:14;14.10;99.90
74901;DHT22;63461;51.416;6.758;2022-09-24T04:09:58;14.20;99.90
74901;DHT22;63461;51.416;6.758;2022-09-24T04:12:42;14.20;99.90
74901;DHT22;63461;51.416;6.758;2022-09-24T04:15:28;14.20;99.90
74901;DHT22;63461;51.416;6.758;2022-09-24T04:18:13;14.20;99.90
74901;DHT22;63461;51.416;6.758;2022-09-24T04:20:58;14.10;99.90
74901;DHT22;63461;51.416;6.758;2022-09-24T04:23:43;14.10;99.90
74901;DHT22;63461;51.416;6.758;2022-09-24T04:26:27;14.10;99.90
74901;DHT22;63461;51.416;6.758;2022-09-24T04:29:12;14.10;99.90
74901;DHT22;63461;51.416;6.758;2022-09-24T04:31:56;14.10;99.90
74901;DHT22;63461;51.416;6.758;2022-09-24T04:34:40;14.10;99.90
74901;DHT22;63461;51.416;6.758;2022-09-24T04:37:25;14.10;99.90
74901;DHT22;63461;51.416;6.758;2022-09-24T04:40:09;14.00;99.90
74901;DHT22;63461;51.416;6.758;2022-09-24T04:42:55;14.10;99.90
74901;DHT22;63461;51.416;6.758;2022-09-24T04:45:39;14.10;99.90
74901;DHT22;63461;51.416;6.758;2022-09-24T04:48:26;14.10;99.90
74901;DHT22;63461;51.416;6.758;2022-09-24T04:51:10;14.10;99.90
74901;DHT22;63461;51.416;6.758;2022-09-24T04:53:55;14.00;99.90
74901;DHT22;63461;51.416;6.758;2022-09-24T04:56:38;14.00;99.90
74901;DHT22;63461;51.416;6.758;2022-09-24T04:59:23;14.00;99.90
74901;DHT22;63461;51.416;6.758;2022-09-24T05:02:07;14.00;99.90
74901;DHT22;63461;51.416;6.758;2022-09-24T05:04:52;14.00;99.90
74901;DHT22;63461;51.416;6.758;2022-09-24T05:07:36;14.00;99.90
74901;DHT22;63461;51.416;6.758;2022-09-24T05:10:21;14.00;99.90
74901;DHT22;63461;51.416;6.758;2022-09-24T05:13:05;14.00;99.90
74901;DHT22;63461;51.416;6.758;2022-09-24T05:15:49;13.90;99.90
74901;DHT22;63461;51.416;6.758;2022-09-24T05:18:33;13.90;99.90
74901;DHT22;63461;51.416;6.758;2022-09-24T05:21:18;13.90;99.90
74901;DHT22;63461;51.416;6.758;2022-09-24T05:24:03;13.90;99.90
74901;DHT22;63461;51.416;6.758;2022-09-24T05:26:48;14.00;99.90
74901;DHT22;63461;51.416;6.758;2022-09-24T05:29:51;13.90;99.90
74901;DHT22;63461;51.416;6.758;2022-09-24T05:32:35;13.90;99.90
74901;DHT22;63461;51.416;6.758;2022-09-24T05:35:21;13.90;99.90
74901;DHT22;63461;51.416;6.758;2022-09-24T05:38:06;13.90;99.90
74901;DHT22;63461;51.416;6.758;2022-09-24T05:40:50;13.90;99.90
74901;DHT22;63461;51.416;6.758;2022-09-24T05:43:35;13.90;99.90
74901;DHT22;63461;51.416;6.758;2022-09-24T05:46:20;13.90;99.90
74901;DHT22;63461;51.416;6.758;2022-09-24T05:49:04;13.90;99.90
74901;DHT22;63461;51.416;6.758;2022-09-24T05:51:49;13.90;99.90
74901;DHT22;63461;51.416;6.758;2022-09-24T05:54:34;13.90;99.90
74901;DHT22;63461;51.416;6.758;2022-09-24T05:57:18;13.90;99.90
74901;DHT22;63461;51.416;6.758;2022-09-24T06:00:04;14.00;99.90
74901;DHT22;63461;51.416;6.758;2022-09-24T06:03:10;14.00;99.90
74901;DHT22;63461;51.416;6.758;2022-09-24T06:05:54;14.00;99.90
74901;DHT22;63461;51.416;6.758;2022-09-24T06:08:45;14.00;99.90
74901;DHT22;63461;51.416;6.758;2022-09-24T06:11:32;14.00;99.90
74901;DHT22;63461;51.416;6.758;2022-09-24T06:14:18;14.00;99.90
74901;DHT22;63461;51.416;6.758;2022-09-24T06:17:02;14.00;99.90
74901;DHT22;63461;51.416;6.758;2022-09-24T06:19:47;14.00;99.90
74901;DHT22;63461;51.416;6.758;2022-09-24T06:22:31;14.00;99.90
74901;DHT22;63461;51.416;6.758;2022-09-24T06:25:16;14.10;99.90
74901;DHT22;63461;51.416;6.758;2022-09-24T06:28:03;14.10;99.90
74901;DHT22;63461;51.416;6.758;2022-09-24T06:30:47;14.10;99.90
74901;DHT22;63461;51.416;6.758;2022-09-24T06:33:32;14.10;99.90
74901;DHT22;63461;51.416;6.758;2022-09-24T06:36:17;14.10;99.90
74901;DHT22;63461;51.416;6.758;2022-09-24T06:39:01;14.20;99.90
74901;DHT22;63461;51.416;6.758;2022-09-24T06:41:46;14.20;99.90
74901;DHT22;63461;51.416;6.758;2022-09-24T06:44:33;14.30;99.90
74901;DHT22;63461;51.416;6.758;2022-09-24T06:47:17;14.30;99.90
74901;DHT22;63461;51.416;6.758;2022-09-24T06:50:02;14.30;99.90
74901;DHT22;63461;51.416;6.758;2022-09-24T06:52:46;14.30;99.90
74901;DHT22;63461;51.416;6.758;2022-09-24T06:55:31;14.40;99.90
74901;DHT22;63461;51.416;6.758;2022-09-24T06:58:19;14.50;99.90
74901;DHT22;63461;51.416;6.758;2022-09-24T07:01:04;14.50;99.90
74901;DHT22;63461;51.416;6.758;2022-09-24T07:03:48;14.40;99.90
74901;DHT22;63461;51.416;6.758;2022-09-24T07:06:35;14.50;99.90
74901;DHT22;63461;51.416;6.758;2022-09-24T07:09:38;14.60;99.90
74901;DHT22;63461;51.416;6.758;2022-09-24T07:12:24;14.60;99.90
74901;DHT22;63461;51.416;6.758;2022-09-24T07:15:09;14.60;99.90
74901;DHT22;63461;51.416;6.758;2022-09-24T07:17:55;14.60;99.90
74901;DHT22;63461;51.416;6.758;2022-09-24T07:20:40;14.60;99.90
74901;DHT22;63461;51.416;6.758;2022-09-24T07:23:24;14.70;99.90
74901;DHT22;63461;51.416;6.758;2022-09-24T07:26:10;14.80;99.90
74901;DHT22;63461;51.416;6.758;2022-09-24T07:28:55;14.80;99.90
74901;DHT22;63461;51.416;6.758;2022-09-24T07:31:39;14.80;99.90
74901;DHT22;63461;51.416;6.758;2022-09-24T07:34:24;14.80;99.90
74901;DHT22;63461;51.416;6.758;2022-09-24T07:37:09;14.90;99.90
74901;DHT22;63461;51.416;6.758;2022-09-24T07:39:53;14.90;99.90
74901;DHT22;63461;51.416;6.758;2022-09-24T07:42:46;14.90;99.90
74901;DHT22;63461;51.416;6.758;2022-09-24T07:45:31;14.90;99.90
74901;DHT22;63461;51.416;6.758;2022-09-24T07:48:16;14.90;99.90
74901;DHT22;63461;51.416;6.758;2022-09-24T07:51:00;14.90;99.90
74901;DHT22;63461;51.416;6.758;2022-09-24T07:53:44;15.00;99.90
74901;DHT22;63461;51.416;6.758;2022-09-24T07:56:30;15.00;99.90
74901;DHT22;63461;51.416;6.758;2022-09-24T07:59:15;15.00;99.90
74901;DHT22;63461;51.416;6.758;2022-09-24T08:01:59;15.10;99.90
74901;DHT22;63461;51.416;6.758;2022-09-24T08:04:44;15.10;99.90
74901;DHT22;63461;51.416;6.758;2022-09-24T08:07:28;15.10;99.90
74901;DHT22;63461;51.416;6.758;2022-09-24T08:10:13;15.30;99.90
74901;DHT22;63461;51.416;6.758;2022-09-24T08:13:00;15.30;99.90
74901;DHT22;63461;51.416;6.758;2022-09-24T08:15:45;15.40;99.90
74901;DHT22;63461;51.416;6.758;2022-09-24T08:18:31;15.50;99.90
74901;DHT22;63461;51.416;6.758;2022-09-24T08:21:15;15.60;99.90
74901;DHT22;63461;51.416;6.758;2022-09-24T08:24:01;15.60;99.90
74901;DHT22;63461;51.416;6.758;2022-09-24T08:26:45;15.70;99.90
74901;DHT22;63461;51.416;6.758;2022-09-24T08:29:29;15.80;99.90
74901;DHT22;63461;51.416;6.758;2022-09-24T08:32:13;15.90;99.90
74901;DHT22;63461;51.416;6.758;2022-09-24T08:34:58;16.00;99.90
74901;DHT22;63461;51.416;6.758;2022-09-24T08:37:42;16.00;99.90
74901;DHT22;63461;51.416;6.758;2022-09-24T08:40:29;16.20;99.90
74901;DHT22;63461;51.416;6.758;2022-09-24T08:46:35;16.40;99.90
74901;DHT22;63461;51.416;6.758;2022-09-24T08:49:44;16.40;99.90
74901;DHT22;63461;51.416;6.758;2022-09-24T08:55:41;16.50;99.90
74901;DHT22;63461;51.416;6.758;2022-09-24T09:04:33;16.60;99.90
74901;DHT22;63461;51.416;6.758;2022-09-24T09:07:28;16.70;99.90
74901;DHT22;63461;51.416;6.758;2022-09-24T09:10:17;16.70;99.90
74901;DHT22;63461;51.416;6.758;2022-09-24T09:13:22;16.70;99.90
74901;DHT22;63461;51.416;6.758;2022-09-24T09:16:22;16.60;99.90
74901;DHT22;63461;51.416;6.758;2022-09-24T09:19:11;16.70;99.90
74901;DHT22;63461;51.416;6.758;2022-09-24T09:22:02;16.60;99.90
74901;DHT22;63461;51.416;6.758;2022-09-24T09:24:52;16.70;99.90
74901;DHT22;63461;51.416;6.758;2022-09-24T09:27:38;16.70;99.90
74901;DHT22;63461;51.416;6.758;2022-09-24T09:30:22;16.70;99.90
74901;DHT22;63461;51.416;6.758;2022-09-24T09:36:34;16.70;99.90
74901;DHT22;63461;51.416;6.758;2022-09-24T09:42:31;16.80;99.90
74901;DHT22;63461;51.416;6.758;2022-09-24T09:48:43;16.90;99.90
74901;DHT22;63461;51.416;6.758;2022-09-24T09:51:32;17.00;99.90
74901;DHT22;63461;51.416;6.758;2022-09-24T09:54:20;17.00;99.90
74901;DHT22;63461;51.416;6.758;2022-09-24T09:57:05;17.00;99.20
74901;DHT22;63461;51.416;6.758;2022-09-24T09:59:53;17.00;99.90
74901;DHT22;63461;51.416;6.758;2022-09-24T10:02:42;16.90;98.90
74901;DHT22;63461;51.416;6.758;2022-09-24T10:05:26;16.90;99.50
74901;DHT22;63461;51.416;6.758;2022-09-24T10:08:21;17.00;99.00
74901;DHT22;63461;51.416;6.758;2022-09-24T10:11:14;17.00;98.90
74901;DHT22;63461;51.416;6.758;2022-09-24T10:14:03;17.00;99.10
74901;DHT22;63461;51.416;6.758;2022-09-24T10:16:52;17.00;99.40
74901;DHT22;63461;51.416;6.758;2022-09-24T10:19:38;16.90;99.20
74901;DHT22;63461;51.416;6.758;2022-09-24T10:22:25;17.00;99.70
74901;DHT22;63461;51.416;6.758;2022-09-24T10:25:23;17.10;99.30
74901;DHT22;63461;51.416;6.758;2022-09-24T10:28:16;17.20;98.90
74901;DHT22;63461;51.416;6.758;2022-09-24T10:31:27;17.20;99.30
74901;DHT22;63461;51.416;6.758;2022-09-24T10:34:24;17.10;98.90
74901;DHT22;63461;51.416;6.758;2022-09-24T10:37:15;17.20;97.70
74901;DHT22;63461;51.416;6.758;2022-09-24T10:40:07;17.20;97.40
74901;DHT22;63461;51.416;6.758;2022-09-24T10:43:00;17.20;97.20
74901;DHT22;63461;51.416;6.758;2022-09-24T10:54:43;17.60;96.30
74901;DHT22;63461;51.416;6.758;2022-09-24T11:01:17;17.60;96.20
74901;DHT22;63461;51.416;6.758;2022-09-24T11:22:41;17.60;96.20
74901;DHT22;63461;51.416;6.758;2022-09-24T11:26:47;17.60;96.10
74901;DHT22;63461;51.416;6.758;2022-09-24T11:29:23;17.60;96.40
74901;DHT22;63461;51.416;6.758;2022-09-24T11:39:27;17.50;97.30
74901;DHT22;63461;51.416;6.758;2022-09-24T11:42:24;17.60;96.70
74901;DHT22;63461;51.416;6.758;2022-09-24T11:48:34;17.70;97.40
74901;DHT22;63461;51.416;6.758;2022-09-24T11:51:22;17.60;98.50
74901;DHT22;63461;51.416;6.758;2022-09-24T11:54:42;17.80;98.40
74901;DHT22;63461;51.416;6.758;2022-09-24T11:57:32;17.80;97.60
74901;DHT22;63461;51.416;6.758;2022-09-24T12:00:19;17.70;99.00
74901;DHT22;63461;51.416;6.758;2022-09-24T12:03:21;17.70;99.90
74901;DHT22;63461;51.416;6.758;2022-09-24T12:06:54;17.60;99.40
74901;DHT22;63461;51.416;6.758;2022-09-24T12:09:24;17.60;99.70
74901;DHT22;63461;51.416;6.758;2022-09-24T12:12:38;17.70;99.40
74901;DHT22;63461;51.416;6.758;2022-09-24T12:16:15;17.60;99.20
74901;DHT22;63461;51.416;6.758;2022-09-24T12:21:46;17.60;99.70
74901;DHT22;63461;51.416;6.758;2022-09-24T12:24:51;17.60;99.90
74901;DHT22;63461;51.416;6.758;2022-09-24T12:27:37;17.50;99.90
74901;DHT22;63461;51.416;6.758;2022-09-24T12:30:30;17.40;99.90
74901;DHT22;63461;51.416;6.758;2022-09-24T12:34:06;17.40;99.90
74901;DHT22;63461;51.416;6.758;2022-09-24T12:37:12;17.40;99.90
74901;DHT22;63461;51.416;6.758;2022-09-24T12:40:16;17.40;99.90
74901;DHT22;63461;51.416;6.758;2022-09-24T12:43:08;17.40;99.90
74901;DHT22;63461;51.416;6.758;2022-09-24T12:46:00;17.40;99.90
74901;DHT22;63461;51.416;6.758;2022-09-24T12:48:46;17.30;99.90
74901;DHT22;63461;51.416;6.758;2022-09-24T12:51:36;17.40;99.90
74901;DHT22;63461;51.416;6.758;2022-09-24T12:57:21;17.30;99.90
74901;DHT22;63461;51.416;6.758;2022-09-24T13:03:36;17.40;99.90
74901;DHT22;63461;51.416;6.758;2022-09-24T13:06:35;17.50;99.90
74901;DHT22;63461;51.416;6.758;2022-09-24T13:09:37;17.50;99.90
74901;DHT22;63461;51.416;6.758;2022-09-24T13:12:31;17.40;99.90
74901;DHT22;63461;51.416;6.758;2022-09-24T13:15:23;17.40;99.90
74901;DHT22;63461;51.416;6.758;2022-09-24T13:20:59;17.30;99.90
74901;DHT22;63461;51.416;6.758;2022-09-24T13:23:47;17.40;99.90
74901;DHT22;63461;51.416;6.758;2022-09-24T13:26:33;17.40;99.90
74901;DHT22;63461;51.416;6.758;2022-09-24T13:29:25;17.40;99.90
74901;DHT22;63461;51.416;6.758;2022-09-24T13:32:15;17.40;99.90
74901;DHT22;63461;51.416;6.758;2022-09-24T13:35:10;17.40;99.90
74901;DHT22;63461;51.416;6.758;2022-09-24T13:38:07;17.50;99.90
74901;DHT22;63461;51.416;6.758;2022-09-24T13:40:59;17.50;99.90
74901;DHT22;63461;51.416;6.758;2022-09-24T13:50:21;17.60;99.90
74901;DHT22;63461;51.416;6.758;2022-09-24T13:56:30;17.60;99.90
74901;DHT22;63461;51.416;6.758;2022-09-24T13:59:14;17.60;99.90
74901;DHT22;63461;51.416;6.758;2022-09-24T14:01:59;17.60;99.90
74901;DHT22;63461;51.416;6.758;2022-09-24T14:04:43;17.50;99.90
74901;DHT22;63461;51.416;6.758;2022-09-24T14:07:28;17.50;99.70
74901;DHT22;63461;51.416;6.758;2022-09-24T14:10:13;17.50;99.90
74901;DHT22;63461;51.416;6.758;2022-09-24T14:12:59;17.50;99.90
74901;DHT22;63461;51.416;6.758;2022-09-24T14:15:58;17.50;99.90
74901;DHT22;63461;51.416;6.758;2022-09-24T14:18:44;17.50;99.90
74901;DHT22;63461;51.416;6.758;2022-09-24T14:21:38;17.50;99.90
74901;DHT22;63461;51.416;6.758;2022-09-24T14:24:33;17.40;99.90
74901;DHT22;63461;51.416;6.758;2022-09-24T14:27:20;17.50;99.90
74901;DHT22;63461;51.416;6.758;2022-09-24T14:30:15;17.40;99.90
74901;DHT22;63461;51.416;6.758;2022-09-24T14:33:12;17.40;99.90
74901;DHT22;63461;51.416;6.758;2022-09-24T14:35:58;17.40;99.90
74901;DHT22;63461;51.416;6.758;2022-09-24T14:38:49;17.40;99.90
74901;DHT22;63461;51.416;6.758;2022-09-24T14:41:35;17.30;99.90
74901;DHT22;63461;51.416;6.758;2022-09-24T14:44:28;17.40;99.90
74901;DHT22;63461;51.416;6.758;2022-09-24T14:47:25;17.30;99.90
74901;DHT22;63461;51.416;6.758;2022-09-24T14:50:36;17.30;99.90
74901;DHT22;63461;51.416;6.758;2022-09-24T14:56:30;17.20;99.90
74901;DHT22;63461;51.416;6.758;2022-09-24T14:59:24;17.20;99.90
74901;DHT22;63461;51.416;6.758;2022-09-24T15:02:32;17.10;99.90
74901;DHT22;63461;51.416;6.758;2022-09-24T15:05:22;17.10;99.90
74901;DHT22;63461;51.416;6.758;2022-09-24T15:11:14;17.00;99.90
74901;DHT22;63461;51.416;6.758;2022-09-24T15:14:19;17.10;99.90
74901;DHT22;63461;51.416;6.758;2022-09-24T15:17:19;16.90;99.90
74901;DHT22;63461;51.416;6.758;2022-09-24T15:20:04;17.00;99.90
74901;DHT22;63461;51.416;6.758;2022-09-24T15:22:48;16.90;99.90
74901;DHT22;63461;51.416;6.758;2022-09-24T15:25:32;16.90;99.90
74901;DHT22;63461;51.416;6.758;2022-09-24T15:28:17;16.90;99.90
74901;DHT22;63461;51.416;6.758;2022-09-24T15:31:01;17.00;99.90
74901;DHT22;63461;51.416;6.758;2022-09-24T15:33:46;16.90;99.90
74901;DHT22;63461;51.416;6.758;2022-09-24T15:36:31;16.90;99.90
74901;DHT22;63461;51.416;6.758;2022-09-24T15:39:16;16.90;99.90
74901;DHT22;63461;51.416;6.758;2022-09-24T15:42:01;16.90;99.90
74901;DHT22;63461;51.416;6.758;2022-09-24T15:44:46;16.90;99.90
74901;DHT22;63461;51.416;6.758;2022-09-24T15:47:30;16.90;99.90
74901;DHT22;63461;51.416;6.758;2022-09-24T15:50:16;16.70;99.90
74901;DHT22;63461;51.416;6.758;2022-09-24T15:53:01;16.60;99.90
74901;DHT22;63461;51.416;6.758;2022-09-24T15:55:54;16.60;99.90
74901;DHT22;63461;51.416;6.758;2022-09-24T15:58:38;16.50;99.90
74901;DHT22;63461;51.416;6.758;2022-09-24T16:01:23;16.50;99.90
74901;DHT22;63461;51.416;6.758;2022-09-24T16:04:10;16.40;99.90
74901;DHT22;63461;51.416;6.758;2022-09-24T16:06:54;16.40;99.90
74901;DHT22;63461;51.416;6.758;2022-09-24T16:09:39;16.40;99.90
74901;DHT22;63461;51.416;6.758;2022-09-24T16:12:24;16.30;99.90
74901;DHT22;63461;51.416;6.758;2022-09-24T16:15:12;16.40;99.90
74901;DHT22;63461;51.416;6.758;2022-09-24T16:17:56;16.30;99.90
74901;DHT22;63461;51.416;6.758;2022-09-24T16:20:41;16.20;99.90
74901;DHT22;63461;51.416;6.758;2022-09-24T16:23:26;16.10;99.90
74901;DHT22;63461;51.416;6.758;2022-09-24T16:26:10;16.10;99.90
74901;DHT22;63461;51.416;6.758;2022-09-24T16:28:54;16.10;99.90
74901;DHT22;63461;51.416;6.758;2022-09-24T16:31:38;16.00;99.90
74901;DHT22;63461;51.416;6.758;2022-09-24T16:34:23;16.00;99.90
74901;DHT22;63461;51.416;6.758;2022-09-24T16:37:08;16.00;99.90
74901;DHT22;63461;51.416;6.758;2022-09-24T16:39:52;16.00;99.90
74901;DHT22;63461;51.416;6.758;2022-09-24T16:42:38;15.90;99.90
74901;DHT22;63461;51.416;6.758;2022-09-24T16:45:22;15.90;99.90
74901;DHT22;63461;51.416;6.758;2022-09-24T16:48:06;15.90;99.90
74901;DHT22;63461;51.416;6.758;2022-09-24T16:50:51;15.90;99.90
74901;DHT22;63461;51.416;6.758;2022-09-24T16:53:35;15.90;99.90
74901;DHT22;63461;51.416;6.758;2022-09-24T16:56:20;15.80;99.90
74901;DHT22;63461;51.416;6.758;2022-09-24T16:59:04;15.80;99.90
74901;DHT22;63461;51.416;6.758;2022-09-24T17:01:48;15.70;99.90
74901;DHT22;63461;51.416;6.758;2022-09-24T17:04:32;15.80;99.90
74901;DHT22;63461;51.416;6.758;2022-09-24T17:07:16;15.80;99.90
74901;DHT22;63461;51.416;6.758;2022-09-24T17:10:01;15.70;99.90
74901;DHT22;63461;51.416;6.758;2022-09-24T17:12:58;15.70;99.90
74901;DHT22;63461;51.416;6.758;2022-09-24T17:15:42;15.70;99.90
74901;DHT22;63461;51.416;6.758;2022-09-24T17:18:27;15.70;99.90
74901;DHT22;63461;51.416;6.758;2022-09-24T17:21:12;15.70;99.90
74901;DHT22;63461;51.416;6.758;2022-09-24T17:23:56;15.60;99.90
74901;DHT22;63461;51.416;6.758;2022-09-24T17:26:40;15.60;99.90
74901;DHT22;63461;51.416;6.758;2022-09-24T17:29:24;15.60;99.90
74901;DHT22;63461;51.416;6.758;2022-09-24T17:32:09;15.60;99.90
74901;DHT22;63461;51.416;6.758;2022-09-24T17:34:53;15.70;99.90
74901;DHT22;63461;51.416;6.758;2022-09-24T17:37:38;15.60;99.90
74901;DHT22;63461;51.416;6.758;2022-09-24T17:40:22;15.60;99.90
74901;DHT22;63461;51.416;6.758;2022-09-24T17:43:06;15.60;99.90
74901;DHT22;63461;51.416;6.758;2022-09-24T17:46:02;15.50;99.90
74901;DHT22;63461;51.416;6.758;2022-09-24T17:48:49;15.60;99.90
74901;DHT22;63461;51.416;6.758;2022-09-24T17:51:35;15.60;99.90
74901;DHT22;63461;51.416;6.758;2022-09-24T17:54:19;15.50;99.90
74901;DHT22;63461;51.416;6.758;2022-09-24T17:57:06;15.50;99.90
74901;DHT22;63461;51.416;6.758;2022-09-24T17:59:50;15.50;99.90
74901;DHT22;63461;51.416;6.758;2022-09-24T18:02:34;15.50;99.90
74901;DHT22;63461;51.416;6.758;2022-09-24T18:05:19;15.50;99.90
74901;DHT22;63461;51.416;6.758;2022-09-24T18:08:03;15.50;99.90
74901;DHT22;63461;51.416;6.758;2022-09-24T18:10:59;15.40;99.90
74901;DHT22;63461;51.416;6.758;2022-09-24T18:13:48;15.40;99.90
74901;DHT22;63461;51.416;6.758;2022-09-24T18:16:33;15.50;99.90
74901;DHT22;63461;51.416;6.758;2022-09-24T18:19:17;15.30;99.90
74901;DHT22;63461;51.416;6.758;2022-09-24T18:22:02;15.30;99.90
74901;DHT22;63461;51.416;6.758;2022-09-24T18:24:48;15.30;99.90
74901;DHT22;63461;51.416;6.758;2022-09-24T18:27:33;15.30;99.90
74901;DHT22;63461;51.416;6.758;2022-09-24T18:30:19;15.30;99.90
74901;DHT22;63461;51.416;6.758;2022-09-24T18:33:03;15.20;99.90
74901;DHT22;63461;51.416;6.758;2022-09-24T18:35:48;15.30;99.90
74901;DHT22;63461;51.416;6.758;2022-09-24T18:38:32;15.30;99.90
74901;DHT22;63461;51.416;6.758;2022-09-24T18:41:22;15.30;99.90
74901;DHT22;63461;51.416;6.758;2022-09-24T18:44:06;15.30;99.90
74901;DHT22;63461;51.416;6.758;2022-09-24T18:46:51;15.30;99.90
74901;DHT22;63461;51.416;6.758;2022-09-24T18:49:35;15.30;99.90
74901;DHT22;63461;51.416;6.758;2022-09-24T18:52:20;15.30;99.90
74901;DHT22;63461;51.416;6.758;2022-09-24T18:55:05;15.20;99.90
74901;DHT22;63461;51.416;6.758;2022-09-24T18:57:49;15.20;99.90
74901;DHT22;63461;51.416;6.758;2022-09-24T19:00:34;15.20;99.90
74901;DHT22;63461;51.416;6.758;2022-09-24T19:03:34;15.20;99.90
74901;DHT22;63461;51.416;6.758;2022-09-24T19:06:20;15.20;99.90
74901;DHT22;63461;51.416;6.758;2022-09-24T19:09:05;15.20;99.90
74901;DHT22;63461;51.416;6.758;2022-09-24T19:11:49;15.20;99.90
74901;DHT22;63461;51.416;6.758;2022-09-24T19:14:34;15.20;99.90
74901;DHT22;63461;51.416;6.758;2022-09-24T19:17:18;15.10;99.90
74901;DHT22;63461;51.416;6.758;2022-09-24T19:20:02;15.10;99.90